createdAt,value
2019-02-20T00:01:48.558Z,16.77
2019-02-20T00:04:18.973Z,15.10
2019-02-20T00:06:49.304Z,15.00
2019-02-20T00:09:19.689Z,16.10
2019-02-20T00:11:50.140Z,15.57
2019-02-20T00:14:28.092Z,16.17
2019-02-20T00:16:59.330Z,16.27
2019-02-20T00:19:29.776Z,15.20
2019-02-20T00:22:00.918Z,17.20
2019-02-20T00:24:31.363Z,16.90
2019-02-20T00:27:01.690Z,16.73
2019-02-20T00:29:32.153Z,15.07
2019-02-20T00:32:02.495Z,17.80
2019-02-20T00:34:32.999Z,15.10
2019-02-20T00:37:25.096Z,18.43
2019-02-20T00:39:56.538Z,17.33
2019-02-20T00:42:26.930Z,16.77
2019-02-20T00:44:57.321Z,17.33
2019-02-20T00:47:47.792Z,18.33
2019-02-20T00:50:18.953Z,17.03
2019-02-20T00:52:55.330Z,20.43
2019-02-20T00:55:27.781Z,19.57
2019-02-20T00:57:58.933Z,18.43
2019-02-20T01:00:29.352Z,19.03
2019-02-20T01:02:59.746Z,16.03
2019-02-20T01:05:30.141Z,15.97
2019-02-20T01:08:01.593Z,16.63
2019-02-20T01:10:39.291Z,19.93
2019-02-20T01:13:09.981Z,21.27
2019-02-20T01:15:52.128Z,19.00
2019-02-20T01:18:44.151Z,21.33
2019-02-20T01:21:14.554Z,19.93
2019-02-20T01:23:45.894Z,22.03
2019-02-20T01:26:17.098Z,22.13
2019-02-20T01:28:47.495Z,22.43
2019-02-20T01:31:17.825Z,22.93
2019-02-20T01:33:48.525Z,16.77
2019-02-20T01:36:19.634Z,17.00
2019-02-20T01:38:50.015Z,14.63
2019-02-20T01:41:20.461Z,11.67
2019-02-20T01:43:51.931Z,12.13
2019-02-20T01:46:23.097Z,10.83
2019-02-20T01:48:53.480Z,12.47
2019-02-20T01:51:29.111Z,12.23
2019-02-20T01:56:44.908Z,9.27
2019-02-20T01:59:15.284Z,10.17
2019-02-20T02:01:45.596Z,8.87
2019-02-20T02:04:24.225Z,7.80
2019-02-20T02:07:15.017Z,8.83
2019-02-20T02:09:47.439Z,7.07
2019-02-20T02:12:18.966Z,8.80
2019-02-20T02:14:49.343Z,7.17
2019-02-20T02:17:19.739Z,14.57
2019-02-20T02:19:50.277Z,17.40
2019-02-20T02:22:21.426Z,10.23
2019-02-20T02:24:54.660Z,9.20
2019-02-20T02:27:24.977Z,14.80
2019-02-20T02:29:55.350Z,18.50
2019-02-20T02:32:25.864Z,17.70
2019-02-20T02:34:56.257Z,18.63
2019-02-20T02:37:27.384Z,16.37
2019-02-20T02:39:58.318Z,13.67
2019-02-20T02:42:29.766Z,12.47
2019-02-20T02:45:01.116Z,11.43
2019-02-20T02:47:33.500Z,14.43
2019-02-20T02:50:03.837Z,13.00
2019-02-20T02:52:34.221Z,12.87
2019-02-20T02:55:04.668Z,11.67
2019-02-20T02:57:35.890Z,16.23
2019-02-20T03:00:06.188Z,13.00
2019-02-20T03:02:56.128Z,11.47
2019-02-20T03:05:26.514Z,13.00
2019-02-20T03:07:56.834Z,15.20
2019-02-20T03:10:27.201Z,11.90
2019-02-20T03:12:58.549Z,12.00
2019-02-20T03:15:29.886Z,8.10
2019-02-20T03:18:01.276Z,10.33
2019-02-20T03:20:31.654Z,12.27
2019-02-20T03:23:02.037Z,12.40
2019-02-20T03:25:36.511Z,12.53
2019-02-20T03:28:07.666Z,9.07
2019-02-20T03:30:38.821Z,9.67
2019-02-20T03:33:09.952Z,10.30
2019-02-20T03:35:40.339Z,9.67
2019-02-20T03:38:10.664Z,10.17
2019-02-20T03:40:41.125Z,11.63
2019-02-20T03:43:11.773Z,10.40
2019-02-20T03:45:43.171Z,11.20
2019-02-20T03:48:14.323Z,11.73
2019-02-20T03:50:44.647Z,10.90
2019-02-20T03:53:15.866Z,10.90
2019-02-20T03:55:46.251Z,10.93
2019-02-20T03:58:17.342Z,12.17
2019-02-20T04:00:53.854Z,11.57
2019-02-20T04:03:24.242Z,12.50
2019-02-20T04:05:56.884Z,10.13
2019-02-20T04:08:28.091Z,9.67
2019-02-20T04:10:58.490Z,10.07
2019-02-20T04:13:32.990Z,10.13
2019-02-20T04:16:03.311Z,9.03
2019-02-20T04:18:33.749Z,8.87
2019-02-20T04:21:04.158Z,9.93
2019-02-20T04:23:35.300Z,10.20
2019-02-20T04:26:06.750Z,10.73
2019-02-20T04:28:38.102Z,9.77
2019-02-20T04:31:09.257Z,10.73
2019-02-20T04:33:39.718Z,11.03
2019-02-20T04:36:16.448Z,9.40
2019-02-20T04:38:48.662Z,10.97
2019-02-20T04:41:26.627Z,11.00
2019-02-20T04:43:57.825Z,9.57
2019-02-20T04:46:28.219Z,11.80
2019-02-20T04:48:58.618Z,10.60
2019-02-20T04:51:29.897Z,11.20
2019-02-20T04:54:00.285Z,9.90
2019-02-20T04:56:30.925Z,10.40
2019-02-20T04:59:02.060Z,14.73
2019-02-20T05:01:33.168Z,12.47
2019-02-20T05:04:07.686Z,12.40
2019-02-20T05:06:57.729Z,12.13
2019-02-20T05:09:28.884Z,11.17
2019-02-20T05:11:59.320Z,12.60
2019-02-20T05:14:29.891Z,11.37
2019-02-20T05:17:00.282Z,14.47
2019-02-20T05:19:30.709Z,11.83
2019-02-20T05:22:01.534Z,11.23
2019-02-20T05:24:32.695Z,12.63
2019-02-20T05:27:03.094Z,13.13
2019-02-20T05:29:34.257Z,13.30
2019-02-20T05:32:04.714Z,13.60
2019-02-20T05:34:41.228Z,13.70
2019-02-20T05:37:12.362Z,12.57
2019-02-20T05:39:43.768Z,13.00
2019-02-20T05:42:14.155Z,12.73
2019-02-20T05:44:45.351Z,13.97
2019-02-20T05:47:37.148Z,10.17
2019-02-20T05:50:07.979Z,11.50
2019-02-20T05:52:39.183Z,10.30
2019-02-20T05:55:09.560Z,12.10
2019-02-20T05:57:39.990Z,12.43
2019-02-20T06:00:10.440Z,12.67
2019-02-20T06:02:40.705Z,14.10
2019-02-20T06:05:11.916Z,12.27
2019-02-20T06:07:43.329Z,13.07
2019-02-20T06:12:58.802Z,13.43
2019-02-20T06:15:29.160Z,12.43
2019-02-20T06:17:59.727Z,13.53
2019-02-20T06:20:30.051Z,14.13
2019-02-20T06:23:00.863Z,11.43
2019-02-20T06:25:31.431Z,12.23
2019-02-20T06:28:05.958Z,11.83
2019-02-20T06:30:36.357Z,12.40
2019-02-20T06:33:09.869Z,11.83
2019-02-20T06:35:40.438Z,11.20
2019-02-20T06:38:11.871Z,11.93
2019-02-20T06:40:42.780Z,13.10
2019-02-20T06:43:13.892Z,12.90
2019-02-20T06:45:44.548Z,12.47
2019-02-20T06:48:19.090Z,12.10
2019-02-20T06:50:51.462Z,11.87
2019-02-20T06:53:43.318Z,15.13
2019-02-20T06:56:13.703Z,13.40
2019-02-20T06:59:03.779Z,12.73
2019-02-20T07:01:34.180Z,14.90
2019-02-20T07:04:05.325Z,12.57
2019-02-20T07:06:36.480Z,12.33
2019-02-20T07:09:29.212Z,11.93
2019-02-20T07:12:14.315Z,11.87
2019-02-20T07:15:14.152Z,12.53
2019-02-20T07:17:57.656Z,12.50
2019-02-20T07:20:48.493Z,14.03
2019-02-20T07:26:27.822Z,16.33
2019-02-20T07:29:49.637Z,13.13
2019-02-20T07:32:20.786Z,19.60
2019-02-20T07:34:51.191Z,21.20
2019-02-20T07:37:21.644Z,14.07
2019-02-20T07:39:52.838Z,17.73
2019-02-20T07:42:23.165Z,16.63
2019-02-20T07:44:53.551Z,19.03
2019-02-20T07:47:27.059Z,17.40
2019-02-20T07:49:57.445Z,15.10
2019-02-20T07:52:28.809Z,14.83
2019-02-20T07:54:59.963Z,15.20
2019-02-20T07:57:30.363Z,15.37
2019-02-20T08:00:00.682Z,14.00
2019-02-20T08:02:31.203Z,17.33
2019-02-20T08:05:01.866Z,20.37
2019-02-20T08:07:32.954Z,13.80
2019-02-20T08:10:03.391Z,17.13
2019-02-20T08:12:33.711Z,16.47
2019-02-20T08:15:10.220Z,16.03
2019-02-20T08:17:41.370Z,16.33
2019-02-20T08:20:12.523Z,15.57
2019-02-20T08:22:44.084Z,13.27
2019-02-20T08:25:22.459Z,12.20
2019-02-20T08:27:47.120Z,13.87
2019-02-20T08:30:24.851Z,13.43
2019-02-20T08:32:55.248Z,12.80
2019-02-20T08:35:31.883Z,11.57
2019-02-20T08:38:02.255Z,9.80
2019-02-20T08:40:54.129Z,12.53
2019-02-20T08:43:24.432Z,12.53
2019-02-20T08:45:54.823Z,13.90
2019-02-20T08:48:44.659Z,13.30
2019-02-20T08:51:15.814Z,11.30
2019-02-20T08:53:46.553Z,13.83
2019-02-20T08:56:17.652Z,15.47
2019-02-20T08:58:48.028Z,16.03
2019-02-20T09:01:18.476Z,13.27
2019-02-20T09:03:48.938Z,14.43
2019-02-20T09:06:19.326Z,14.37
2019-02-20T09:08:49.751Z,13.87
2019-02-20T09:11:21.125Z,15.07
2019-02-20T09:14:10.635Z,13.00
2019-02-20T09:16:40.960Z,13.23
2019-02-20T09:19:11.614Z,13.13
2019-02-20T09:21:42.006Z,13.47
2019-02-20T09:24:13.589Z,13.23
2019-02-20T09:26:44.723Z,11.87
2019-02-20T09:29:15.043Z,14.77
2019-02-20T09:31:46.192Z,13.70
2019-02-20T09:34:17.396Z,14.70
2019-02-20T09:36:51.813Z,16.40
2019-02-20T09:39:43.218Z,16.87
2019-02-20T09:42:11.918Z,18.13
2019-02-20T09:44:48.476Z,15.63
2019-02-20T09:47:18.857Z,17.10
2019-02-20T09:49:49.251Z,15.93
2019-02-20T09:52:40.008Z,15.33
2019-02-20T09:55:10.396Z,16.33
2019-02-20T09:57:40.780Z,14.43
2019-02-20T10:00:16.903Z,16.67
2019-02-20T10:02:48.304Z,15.30
2019-02-20T10:05:22.083Z,18.37
2019-02-20T10:07:52.480Z,15.57
2019-02-20T10:10:22.852Z,17.20
2019-02-20T10:12:56.291Z,18.60
2019-02-20T10:15:26.668Z,20.50
2019-02-20T10:17:57.008Z,17.90
2019-02-20T10:20:27.427Z,17.33
2019-02-20T10:22:57.754Z,16.27
2019-02-20T10:25:28.358Z,15.73
2019-02-20T10:27:59.517Z,17.00
2019-02-20T10:30:29.897Z,14.83
2019-02-20T10:33:01.352Z,16.17
2019-02-20T10:35:31.740Z,15.80
2019-02-20T10:38:02.347Z,14.63
2019-02-20T10:40:33.569Z,16.30
2019-02-20T10:43:03.902Z,18.60
2019-02-20T10:45:35.379Z,15.20
2019-02-20T10:48:05.697Z,14.37
2019-02-20T10:50:36.324Z,15.33
2019-02-20T10:53:06.708Z,15.80
2019-02-20T10:55:37.096Z,16.23
2019-02-20T10:58:07.818Z,13.33
2019-02-20T11:00:38.147Z,14.10
2019-02-20T11:03:08.516Z,14.97
2019-02-20T11:05:38.976Z,17.13
2019-02-20T11:08:09.348Z,15.50
2019-02-20T11:10:39.943Z,16.70
2019-02-20T11:13:11.087Z,16.03
2019-02-20T11:15:42.370Z,16.20
2019-02-20T11:18:12.682Z,17.37
2019-02-20T11:20:48.494Z,15.63
2019-02-20T11:23:13.678Z,17.10
2019-02-20T11:25:45.086Z,19.60
2019-02-20T11:28:15.614Z,19.07
2019-02-20T11:30:46.067Z,18.07
2019-02-20T11:33:19.590Z,16.63
2019-02-20T11:38:38.272Z,21.40
2019-02-20T11:41:09.713Z,17.73
2019-02-20T11:43:40.091Z,15.17
2019-02-20T11:46:10.487Z,16.80
2019-02-20T11:48:41.148Z,17.00
2019-02-20T11:51:12.300Z,17.73
2019-02-20T11:53:42.920Z,19.00
2019-02-20T11:56:13.370Z,17.33
2019-02-20T11:58:43.944Z,17.80
2019-02-20T12:01:14.385Z,18.33
2019-02-20T12:03:44.766Z,20.07
2019-02-20T12:06:17.475Z,18.77
2019-02-20T12:08:48.629Z,18.17
2019-02-20T12:11:18.956Z,17.67
2019-02-20T12:13:49.318Z,18.70
2019-02-20T12:16:19.707Z,17.23
2019-02-20T12:18:50.110Z,18.07
2019-02-20T12:21:20.803Z,17.07
2019-02-20T12:23:51.952Z,18.00
2019-02-20T12:26:24.045Z,18.93
2019-02-20T12:28:52.878Z,17.10
2019-02-20T12:31:23.267Z,18.03
2019-02-20T12:34:12.874Z,16.20
2019-02-20T12:36:43.275Z,15.77
2019-02-20T12:39:33.845Z,15.87
2019-02-20T12:42:04.180Z,18.43
2019-02-20T12:44:34.784Z,15.20
2019-02-20T12:47:06.319Z,14.43
2019-02-20T12:49:36.695Z,16.33
2019-02-20T12:52:09.195Z,14.17
2019-02-20T12:54:39.589Z,13.77
2019-02-20T12:57:10.460Z,16.57
2019-02-20T12:59:41.417Z,14.93
2019-02-20T13:02:11.798Z,17.65
2019-02-20T13:04:42.231Z,14.70
2019-02-20T13:07:17.698Z,13.37
2019-02-20T13:09:50.170Z,14.67
2019-02-20T13:12:19.511Z,13.77
2019-02-20T13:14:50.676Z,12.97
2019-02-20T13:17:21.825Z,11.80
2019-02-20T13:19:52.331Z,12.83
2019-02-20T13:22:23.554Z,14.97
2019-02-20T13:24:54.638Z,14.27
2019-02-20T13:27:25.187Z,13.30
2019-02-20T13:29:55.652Z,15.00
2019-02-20T13:32:26.031Z,15.17
2019-02-20T13:34:56.638Z,14.10
2019-02-20T13:37:27.983Z,14.63
2019-02-20T13:39:59.230Z,15.47
2019-02-20T13:42:32.066Z,16.50
2019-02-20T13:45:00.759Z,14.80
2019-02-20T13:47:35.240Z,15.97
2019-02-20T13:50:05.686Z,13.13
2019-02-20T13:52:36.083Z,15.73
2019-02-20T13:55:07.358Z,13.63
2019-02-20T13:57:37.737Z,12.80
2019-02-20T14:00:08.130Z,15.33
2019-02-20T14:02:38.640Z,17.40
2019-02-20T14:05:09.025Z,14.80
2019-02-20T14:07:39.586Z,14.83
2019-02-20T14:10:15.996Z,16.33
2019-02-20T14:12:50.467Z,16.40
2019-02-20T14:15:20.919Z,15.73
2019-02-20T14:17:51.246Z,13.53
2019-02-20T14:20:21.829Z,11.90
2019-02-20T14:22:52.284Z,15.00
2019-02-20T14:25:44.479Z,13.10
2019-02-20T14:28:14.859Z,14.40
2019-02-20T14:30:45.741Z,12.73
2019-02-20T14:33:16.145Z,11.77
2019-02-20T14:35:51.727Z,11.53
2019-02-20T14:38:22.066Z,12.73
2019-02-20T14:40:52.494Z,11.97
2019-02-20T14:43:22.890Z,11.57
2019-02-20T14:45:53.204Z,11.23
2019-02-20T14:48:30.959Z,11.50
2019-02-20T14:51:02.653Z,13.47
2019-02-20T14:53:32.763Z,12.37
2019-02-20T14:56:03.158Z,15.40
2019-02-20T14:58:34.308Z,13.33
2019-02-20T15:01:06.126Z,14.97
2019-02-20T15:03:37.727Z,15.47
2019-02-20T15:06:09.093Z,14.90
2019-02-20T15:08:39.669Z,14.27
2019-02-20T15:11:10.545Z,11.77
2019-02-20T15:13:40.507Z,12.87
2019-02-20T15:16:14.931Z,13.83
2019-02-20T15:19:06.733Z,10.30
2019-02-20T15:21:37.119Z,12.30
2019-02-20T15:24:07.475Z,13.83
2019-02-20T15:26:37.881Z,13.03
2019-02-20T15:29:09.031Z,12.00
2019-02-20T15:31:40.153Z,11.20
2019-02-20T15:34:10.602Z,12.40
2019-02-20T15:36:41.752Z,11.50
2019-02-20T15:39:12.189Z,12.43
2019-02-20T15:41:42.590Z,13.20
2019-02-20T15:44:12.986Z,13.70
2019-02-20T15:47:03.824Z,12.80
2019-02-20T15:52:17.954Z,8.27
2019-02-20T15:54:49.356Z,9.53
2019-02-20T15:57:20.448Z,16.40
2019-02-20T15:59:58.449Z,12.07
2019-02-20T16:02:48.188Z,11.37
2019-02-20T16:05:18.633Z,11.77
2019-02-20T16:07:48.902Z,15.73
2019-02-20T16:10:19.359Z,12.20
2019-02-20T16:12:50.461Z,13.33
2019-02-20T16:15:20.915Z,13.50
2019-02-20T16:17:51.298Z,11.87
2019-02-20T16:20:40.802Z,12.40
2019-02-20T16:23:11.242Z,15.03
2019-02-20T16:25:41.640Z,13.87
2019-02-20T16:28:19.406Z,13.00
2019-02-20T16:30:49.789Z,15.23
2019-02-20T16:33:21.562Z,13.23
2019-02-20T16:35:53.358Z,18.50
2019-02-20T16:38:22.270Z,12.70
2019-02-20T16:41:13.059Z,19.23
2019-02-20T16:43:43.445Z,21.27
2019-02-20T16:46:16.868Z,14.50
2019-02-20T16:48:45.810Z,14.70
2019-02-20T16:51:16.138Z,12.83
2019-02-20T16:53:46.589Z,16.83
2019-02-20T16:56:17.734Z,12.83
2019-02-20T16:58:48.898Z,14.53
2019-02-20T17:01:19.522Z,15.13
2019-02-20T17:03:50.608Z,17.33
2019-02-20T17:06:20.987Z,13.00
2019-02-20T17:08:54.395Z,13.53
2019-02-20T17:11:25.478Z,14.03
2019-02-20T17:13:58.991Z,13.77
2019-02-20T17:16:29.443Z,14.37
2019-02-20T17:18:59.901Z,14.37
2019-02-20T17:21:30.208Z,16.23
2019-02-20T17:24:01.567Z,17.23
2019-02-20T17:26:32.237Z,15.93
2019-02-20T17:29:05.703Z,16.47
2019-02-20T17:31:36.091Z,16.37
2019-02-20T17:34:06.543Z,15.87
2019-02-20T17:36:37.697Z,17.27
2019-02-20T17:39:08.833Z,18.23
2019-02-20T17:41:39.991Z,20.57
2019-02-20T17:44:10.557Z,16.47
2019-02-20T17:46:48.402Z,18.00
2019-02-20T17:49:19.740Z,17.63
2019-02-20T17:51:50.133Z,15.70
2019-02-20T17:54:27.140Z,16.87
2019-02-20T17:56:57.530Z,16.57
2019-02-20T17:59:28.108Z,17.23
2019-02-20T18:01:58.570Z,15.87
2019-02-20T18:04:28.888Z,19.90
2019-02-20T18:07:00.265Z,19.13
2019-02-20T18:09:30.666Z,19.30
2019-02-20T18:12:01.223Z,18.10
2019-02-20T18:14:31.647Z,19.00
2019-02-20T18:17:01.971Z,21.73
2019-02-20T18:19:32.291Z,18.77
2019-02-20T18:22:02.715Z,20.50
2019-02-20T18:24:33.064Z,18.90
2019-02-20T18:27:03.440Z,23.10
2019-02-20T18:29:34.727Z,21.57
2019-02-20T18:32:09.209Z,21.53
2019-02-20T18:34:40.479Z,19.17
2019-02-20T18:37:10.877Z,19.30
2019-02-20T18:39:41.456Z,20.50
2019-02-20T18:42:11.882Z,19.03
2019-02-20T18:44:44.312Z,16.43
2019-02-20T18:47:15.470Z,22.27
2019-02-20T18:49:45.928Z,18.37
2019-02-20T18:52:16.326Z,18.53
2019-02-20T18:54:46.766Z,20.43
2019-02-20T18:57:17.377Z,21.17
2019-02-20T18:59:47.710Z,21.97
2019-02-20T19:02:18.818Z,21.13
2019-02-20T19:04:49.211Z,19.13
2019-02-20T19:07:19.613Z,28.93
2019-02-20T19:09:50.000Z,28.43
2019-02-20T19:12:34.653Z,24.33
2019-02-20T19:18:18.591Z,22.20
2019-02-20T19:20:53.862Z,24.00
2019-02-20T19:23:56.559Z,24.53
2019-02-20T19:26:35.148Z,30.00
2019-02-20T19:29:32.198Z,28.20
2019-02-20T19:32:36.291Z,31.03
2019-02-20T19:35:42.394Z,30.27
2019-02-20T19:38:33.160Z,26.23
2019-02-20T19:41:20.882Z,26.53
2019-02-20T19:46:55.637Z,27.20
2019-02-20T19:49:29.387Z,30.10
2019-02-20T19:52:13.710Z,24.33
2019-02-20T19:54:54.774Z,26.43
2019-02-20T19:57:39.540Z,23.73
2019-02-20T20:00:16.242Z,27.80
2019-02-20T20:03:00.238Z,30.60
2019-02-20T20:06:04.075Z,30.63
2019-02-20T20:08:44.982Z,31.33
2019-02-20T20:11:54.413Z,27.33
2019-02-20T20:14:48.348Z,29.57
2019-02-20T20:17:38.569Z,25.67
2019-02-20T20:20:26.088Z,25.23
2019-02-20T20:23:19.051Z,23.83
2019-02-20T20:26:08.911Z,28.93
2019-02-20T20:29:14.790Z,29.37
2019-02-20T20:35:28.657Z,31.97
2019-02-20T20:38:09.997Z,48.87
2019-02-20T20:40:53.891Z,48.60
2019-02-20T20:43:41.287Z,43.10
2019-02-20T20:46:21.028Z,55.67
2019-02-20T20:49:12.686Z,39.50
2019-02-20T20:52:01.480Z,37.47
2019-02-20T20:54:45.498Z,36.80
2019-02-20T20:57:42.821Z,36.00
2019-02-20T21:00:45.484Z,33.30
2019-02-20T21:03:16.730Z,38.97
2019-02-20T21:06:31.617Z,36.93
2019-02-20T21:09:02.742Z,37.43
2019-02-20T21:11:59.576Z,36.63
2019-02-20T21:14:37.894Z,40.97
2019-02-20T21:17:22.353Z,32.90
2019-02-20T21:22:40.798Z,27.03
2019-02-20T21:25:30.984Z,26.87
2019-02-20T21:28:10.845Z,25.57
2019-02-20T21:31:06.998Z,30.47
2019-02-20T21:34:17.116Z,31.50
2019-02-20T21:37:16.597Z,29.87
2019-02-20T21:43:28.587Z,25.30
2019-02-20T21:46:19.332Z,25.63
2019-02-20T21:49:09.751Z,32.50
2019-02-20T21:52:09.849Z,25.90
2019-02-20T21:54:50.942Z,27.93
2019-02-20T21:57:31.343Z,30.30
2019-02-20T22:00:28.325Z,25.07
2019-02-20T22:03:16.344Z,26.07
2019-02-20T22:06:04.420Z,23.63
2019-02-20T22:08:54.208Z,26.43
2019-02-20T22:11:33.627Z,28.00
2019-02-20T22:14:18.051Z,31.37
2019-02-20T22:17:10.807Z,29.10
2019-02-20T22:20:26.036Z,31.70
2019-02-20T22:23:16.207Z,35.30
2019-02-20T22:26:06.460Z,30.63
2019-02-20T22:28:39.941Z,33.63
2019-02-20T22:31:36.522Z,31.17
2019-02-20T22:34:15.252Z,40.27
2019-02-20T22:37:22.136Z,38.50
2019-02-20T22:43:22.966Z,56.63
2019-02-20T22:45:55.949Z,43.17
2019-02-20T22:48:55.899Z,42.43
2019-02-20T22:51:42.817Z,32.43
2019-02-20T22:54:42.329Z,24.33
2019-02-20T23:01:00.531Z,29.03
2019-02-20T23:03:50.352Z,26.63
2019-02-20T23:06:40.523Z,28.90
2019-02-20T23:09:33.998Z,28.93
2019-02-20T23:12:14.941Z,28.73
2019-02-20T23:14:58.903Z,26.13
2019-02-20T23:17:29.302Z,23.90
2019-02-20T23:19:59.698Z,26.10
2019-02-20T23:22:30.908Z,29.23
2019-02-20T23:25:01.366Z,31.37
2019-02-20T23:27:31.937Z,31.63
2019-02-20T23:30:12.241Z,30.67
2019-02-20T23:32:39.929Z,30.63
2019-02-20T23:35:10.317Z,31.70
2019-02-20T23:37:40.888Z,33.90
2019-02-20T23:40:12.022Z,30.17
2019-02-20T23:42:43.366Z,31.80
2019-02-20T23:45:14.523Z,29.53
2019-02-20T23:47:45.813Z,29.23
2019-02-20T23:50:36.346Z,28.60
2019-02-20T23:53:06.784Z,30.60
2019-02-20T23:55:38.003Z,26.63
2019-02-20T23:58:08.391Z,28.53
